sensor_id;sensor_type;location;lat;lon;timestamp;P1;durP1;ratioP1;P2;durP2;ratioP2
70920;SDS011;58572;48.110;19.838;2023-01-08T00:02:04;24.88;;;11.20;;
70920;SDS011;58572;48.110;19.838;2023-01-08T00:04:31;24.85;;;10.40;;
70920;SDS011;58572;48.110;19.838;2023-01-08T00:06:59;27.52;;;10.93;;
70920;SDS011;58572;48.110;19.838;2023-01-08T00:09:26;26.83;;;9.70;;
70920;SDS011;58572;48.110;19.838;2023-01-08T00:11:53;26.92;;;11.20;;
70920;SDS011;58572;48.110;19.838;2023-01-08T00:14:21;25.75;;;9.13;;
70920;SDS011;58572;48.110;19.838;2023-01-08T00:16:49;31.15;;;11.50;;
70920;SDS011;58572;48.110;19.838;2023-01-08T00:19:17;29.15;;;11.57;;
70920;SDS011;58572;48.110;19.838;2023-01-08T00:24:12;30.08;;;11.13;;
70920;SDS011;58572;48.110;19.838;2023-01-08T00:26:39;23.35;;;9.40;;
70920;SDS011;58572;48.110;19.838;2023-01-08T00:29:07;26.95;;;10.60;;
70920;SDS011;58572;48.110;19.838;2023-01-08T00:31:34;32.63;;;12.02;;
70920;SDS011;58572;48.110;19.838;2023-01-08T00:34:03;32.00;;;11.50;;
70920;SDS011;58572;48.110;19.838;2023-01-08T00:36:30;33.10;;;11.07;;
70920;SDS011;58572;48.110;19.838;2023-01-08T00:38:57;28.15;;;10.18;;
70920;SDS011;58572;48.110;19.838;2023-01-08T00:41:25;30.58;;;11.98;;
70920;SDS011;58572;48.110;19.838;2023-01-08T00:43:52;27.52;;;11.52;;
70920;SDS011;58572;48.110;19.838;2023-01-08T00:46:19;30.25;;;10.18;;
70920;SDS011;58572;48.110;19.838;2023-01-08T00:48:46;37.85;;;12.35;;
70920;SDS011;58572;48.110;19.838;2023-01-08T00:51:15;27.17;;;10.82;;
70920;SDS011;58572;48.110;19.838;2023-01-08T00:53:42;32.88;;;12.38;;
70920;SDS011;58572;48.110;19.838;2023-01-08T00:56:10;28.70;;;11.90;;
70920;SDS011;58572;48.110;19.838;2023-01-08T00:58:37;27.45;;;9.82;;
70920;SDS011;58572;48.110;19.838;2023-01-08T01:01:08;29.55;;;10.77;;
70920;SDS011;58572;48.110;19.838;2023-01-08T01:03:36;28.65;;;11.30;;
70920;SDS011;58572;48.110;19.838;2023-01-08T01:06:03;32.38;;;11.80;;
70920;SDS011;58572;48.110;19.838;2023-01-08T01:08:33;28.88;;;10.48;;
70920;SDS011;58572;48.110;19.838;2023-01-08T01:11:04;27.60;;;11.60;;
70920;SDS011;58572;48.110;19.838;2023-01-08T01:13:33;35.58;;;11.70;;
70920;SDS011;58572;48.110;19.838;2023-01-08T01:16:00;32.55;;;11.57;;
70920;SDS011;58572;48.110;19.838;2023-01-08T01:18:28;29.55;;;12.35;;
70920;SDS011;58572;48.110;19.838;2023-01-08T01:20:56;30.15;;;10.32;;
70920;SDS011;58572;48.110;19.838;2023-01-08T01:23:24;26.60;;;11.00;;
70920;SDS011;58572;48.110;19.838;2023-01-08T01:28:20;30.33;;;11.55;;
70920;SDS011;58572;48.110;19.838;2023-01-08T01:30:52;55.83;;;15.50;;
70920;SDS011;58572;48.110;19.838;2023-01-08T01:33:20;34.35;;;11.80;;
70920;SDS011;58572;48.110;19.838;2023-01-08T01:35:47;55.80;;;18.63;;
70920;SDS011;58572;48.110;19.838;2023-01-08T01:38:14;45.40;;;16.02;;
70920;SDS011;58572;48.110;19.838;2023-01-08T01:40:41;37.47;;;12.23;;
70920;SDS011;58572;48.110;19.838;2023-01-08T01:43:12;48.28;;;14.55;;
70920;SDS011;58572;48.110;19.838;2023-01-08T01:45:39;43.80;;;16.42;;
70920;SDS011;58572;48.110;19.838;2023-01-08T01:48:09;46.13;;;15.93;;
70920;SDS011;58572;48.110;19.838;2023-01-08T01:50:40;35.92;;;12.07;;
70920;SDS011;58572;48.110;19.838;2023-01-08T01:53:12;32.53;;;12.35;;
70920;SDS011;58572;48.110;19.838;2023-01-08T01:55:43;32.28;;;12.63;;
70920;SDS011;58572;48.110;19.838;2023-01-08T01:58:14;30.00;;;10.85;;
70920;SDS011;58572;48.110;19.838;2023-01-08T02:00:43;28.70;;;11.02;;
70920;SDS011;58572;48.110;19.838;2023-01-08T02:03:10;34.10;;;13.05;;
70920;SDS011;58572;48.110;19.838;2023-01-08T02:05:42;36.63;;;12.13;;
70920;SDS011;58572;48.110;19.838;2023-01-08T02:08:15;34.30;;;10.90;;
70920;SDS011;58572;48.110;19.838;2023-01-08T02:10:49;37.05;;;11.35;;
70920;SDS011;58572;48.110;19.838;2023-01-08T02:13:22;37.25;;;12.93;;
70920;SDS011;58572;48.110;19.838;2023-01-08T02:15:54;43.08;;;13.25;;
70920;SDS011;58572;48.110;19.838;2023-01-08T02:18:26;37.65;;;12.95;;
70920;SDS011;58572;48.110;19.838;2023-01-08T02:20:59;34.80;;;11.20;;
70920;SDS011;58572;48.110;19.838;2023-01-08T02:23:29;38.80;;;13.48;;
70920;SDS011;58572;48.110;19.838;2023-01-08T02:26:06;37.00;;;13.43;;
70920;SDS011;58572;48.110;19.838;2023-01-08T02:28:39;38.10;;;13.88;;
70920;SDS011;58572;48.110;19.838;2023-01-08T02:31:08;33.15;;;11.85;;
70920;SDS011;58572;48.110;19.838;2023-01-08T02:33:37;34.80;;;12.52;;
70920;SDS011;58572;48.110;19.838;2023-01-08T02:36:16;33.05;;;11.50;;
70920;SDS011;58572;48.110;19.838;2023-01-08T02:38:55;39.20;;;12.30;;
70920;SDS011;58572;48.110;19.838;2023-01-08T02:41:48;30.58;;;11.15;;
70920;SDS011;58572;48.110;19.838;2023-01-08T02:44:24;30.35;;;10.60;;
70920;SDS011;58572;48.110;19.838;2023-01-08T02:47:00;33.40;;;12.98;;
70920;SDS011;58572;48.110;19.838;2023-01-08T02:49:32;33.85;;;11.70;;
70920;SDS011;58572;48.110;19.838;2023-01-08T02:52:04;25.00;;;9.13;;
70920;SDS011;58572;48.110;19.838;2023-01-08T02:54:34;27.90;;;11.13;;
70920;SDS011;58572;48.110;19.838;2023-01-08T02:57:05;26.13;;;9.95;;
70920;SDS011;58572;48.110;19.838;2023-01-08T02:59:37;30.33;;;10.90;;
70920;SDS011;58572;48.110;19.838;2023-01-08T03:02:06;31.40;;;11.63;;
70920;SDS011;58572;48.110;19.838;2023-01-08T03:04:35;27.52;;;10.32;;
70920;SDS011;58572;48.110;19.838;2023-01-08T03:07:06;31.83;;;10.45;;
70920;SDS011;58572;48.110;19.838;2023-01-08T03:09:33;27.15;;;10.77;;
70920;SDS011;58572;48.110;19.838;2023-01-08T03:12:03;31.67;;;11.15;;
70920;SDS011;58572;48.110;19.838;2023-01-08T03:14:38;27.60;;;10.15;;
70920;SDS011;58572;48.110;19.838;2023-01-08T03:17:11;26.42;;;11.27;;
70920;SDS011;58572;48.110;19.838;2023-01-08T03:19:45;28.10;;;11.18;;
70920;SDS011;58572;48.110;19.838;2023-01-08T03:22:16;29.30;;;10.98;;
70920;SDS011;58572;48.110;19.838;2023-01-08T03:24:45;26.05;;;9.73;;
70920;SDS011;58572;48.110;19.838;2023-01-08T03:27:17;26.35;;;10.23;;
70920;SDS011;58572;48.110;19.838;2023-01-08T03:29:50;28.38;;;10.30;;
70920;SDS011;58572;48.110;19.838;2023-01-08T03:32:19;27.60;;;11.23;;
70920;SDS011;58572;48.110;19.838;2023-01-08T03:34:50;26.75;;;11.07;;
70920;SDS011;58572;48.110;19.838;2023-01-08T03:37:21;27.30;;;10.27;;
70920;SDS011;58572;48.110;19.838;2023-01-08T03:39:51;28.75;;;9.82;;
70920;SDS011;58572;48.110;19.838;2023-01-08T03:42:24;22.77;;;10.32;;
70920;SDS011;58572;48.110;19.838;2023-01-08T03:44:54;30.35;;;10.07;;
70920;SDS011;58572;48.110;19.838;2023-01-08T03:47:21;24.65;;;10.23;;
70920;SDS011;58572;48.110;19.838;2023-01-08T03:49:50;25.33;;;10.18;;
70920;SDS011;58572;48.110;19.838;2023-01-08T03:52:21;26.83;;;9.35;;
70920;SDS011;58572;48.110;19.838;2023-01-08T03:54:49;24.52;;;9.88;;
70920;SDS011;58572;48.110;19.838;2023-01-08T03:57:16;23.20;;;9.70;;
70920;SDS011;58572;48.110;19.838;2023-01-08T03:59:45;27.75;;;10.38;;
70920;SDS011;58572;48.110;19.838;2023-01-08T04:02:13;26.25;;;10.77;;
70920;SDS011;58572;48.110;19.838;2023-01-08T04:04:40;33.38;;;11.02;;
70920;SDS011;58572;48.110;19.838;2023-01-08T04:07:08;26.05;;;9.85;;
70920;SDS011;58572;48.110;19.838;2023-01-08T04:09:36;25.65;;;9.57;;
70920;SDS011;58572;48.110;19.838;2023-01-08T04:12:03;25.60;;;10.15;;
70920;SDS011;58572;48.110;19.838;2023-01-08T04:14:31;26.08;;;10.60;;
70920;SDS011;58572;48.110;19.838;2023-01-08T04:17:00;27.65;;;10.93;;
70920;SDS011;58572;48.110;19.838;2023-01-08T04:19:27;23.98;;;9.93;;
70920;SDS011;58572;48.110;19.838;2023-01-08T04:21:54;27.75;;;10.48;;
70920;SDS011;58572;48.110;19.838;2023-01-08T04:24:21;24.30;;;9.32;;
70920;SDS011;58572;48.110;19.838;2023-01-08T04:29:16;21.42;;;8.93;;
70920;SDS011;58572;48.110;19.838;2023-01-08T04:31:44;22.73;;;9.90;;
70920;SDS011;58572;48.110;19.838;2023-01-08T04:34:13;24.63;;;10.05;;
70920;SDS011;58572;48.110;19.838;2023-01-08T04:36:40;24.60;;;9.05;;
70920;SDS011;58572;48.110;19.838;2023-01-08T04:39:07;27.15;;;10.93;;
70920;SDS011;58572;48.110;19.838;2023-01-08T04:41:35;25.00;;;10.48;;
70920;SDS011;58572;48.110;19.838;2023-01-08T04:44:02;29.10;;;10.93;;
70920;SDS011;58572;48.110;19.838;2023-01-08T04:46:30;24.83;;;10.50;;
70920;SDS011;58572;48.110;19.838;2023-01-08T04:48:57;27.40;;;9.75;;
70920;SDS011;58572;48.110;19.838;2023-01-08T04:51:25;28.33;;;10.43;;
70920;SDS011;58572;48.110;19.838;2023-01-08T04:53:53;27.95;;;10.75;;
70920;SDS011;58572;48.110;19.838;2023-01-08T04:56:20;30.08;;;10.70;;
70920;SDS011;58572;48.110;19.838;2023-01-08T04:58:47;36.10;;;10.77;;
70920;SDS011;58572;48.110;19.838;2023-01-08T05:01:15;59.45;;;19.45;;
70920;SDS011;58572;48.110;19.838;2023-01-08T05:03:45;35.08;;;12.65;;
70920;SDS011;58572;48.110;19.838;2023-01-08T05:06:13;49.90;;;16.17;;
70920;SDS011;58572;48.110;19.838;2023-01-08T05:08:41;38.28;;;12.68;;
70920;SDS011;58572;48.110;19.838;2023-01-08T05:11:09;39.83;;;12.00;;
70920;SDS011;58572;48.110;19.838;2023-01-08T05:13:36;37.67;;;11.02;;
70920;SDS011;58572;48.110;19.838;2023-01-08T05:16:03;31.30;;;10.80;;
70920;SDS011;58572;48.110;19.838;2023-01-08T05:18:30;29.50;;;10.93;;
70920;SDS011;58572;48.110;19.838;2023-01-08T05:20:58;30.25;;;11.10;;
70920;SDS011;58572;48.110;19.838;2023-01-08T05:23:26;31.88;;;10.80;;
70920;SDS011;58572;48.110;19.838;2023-01-08T05:25:57;29.48;;;9.50;;
70920;SDS011;58572;48.110;19.838;2023-01-08T05:28:25;29.85;;;10.82;;
70920;SDS011;58572;48.110;19.838;2023-01-08T05:30:53;25.73;;;9.73;;
70920;SDS011;58572;48.110;19.838;2023-01-08T05:35:48;32.95;;;10.18;;
70920;SDS011;58572;48.110;19.838;2023-01-08T05:38:16;33.63;;;11.40;;
70920;SDS011;58572;48.110;19.838;2023-01-08T05:40:43;33.53;;;10.07;;
70920;SDS011;58572;48.110;19.838;2023-01-08T05:43:12;37.22;;;11.38;;
70920;SDS011;58572;48.110;19.838;2023-01-08T05:45:40;28.35;;;10.55;;
70920;SDS011;58572;48.110;19.838;2023-01-08T05:48:07;32.90;;;10.98;;
70920;SDS011;58572;48.110;19.838;2023-01-08T05:50:34;34.50;;;12.68;;
70920;SDS011;58572;48.110;19.838;2023-01-08T05:53:04;25.95;;;10.38;;
70920;SDS011;58572;48.110;19.838;2023-01-08T05:55:33;30.35;;;11.73;;
70920;SDS011;58572;48.110;19.838;2023-01-08T05:58:00;29.20;;;10.57;;
70920;SDS011;58572;48.110;19.838;2023-01-08T06:00:29;31.33;;;11.25;;
70920;SDS011;58572;48.110;19.838;2023-01-08T06:02:58;31.75;;;11.88;;
70920;SDS011;58572;48.110;19.838;2023-01-08T06:05:25;36.42;;;11.60;;
70920;SDS011;58572;48.110;19.838;2023-01-08T06:07:52;33.63;;;13.98;;
70920;SDS011;58572;48.110;19.838;2023-01-08T06:10:20;38.38;;;13.70;;
70920;SDS011;58572;48.110;19.838;2023-01-08T06:12:47;28.75;;;11.38;;
70920;SDS011;58572;48.110;19.838;2023-01-08T06:15:14;32.85;;;12.63;;
70920;SDS011;58572;48.110;19.838;2023-01-08T06:17:43;35.97;;;13.35;;
70920;SDS011;58572;48.110;19.838;2023-01-08T06:20:11;30.40;;;11.82;;
70920;SDS011;58572;48.110;19.838;2023-01-08T06:22:38;29.40;;;12.10;;
70920;SDS011;58572;48.110;19.838;2023-01-08T06:25:06;37.22;;;16.27;;
70920;SDS011;58572;48.110;19.838;2023-01-08T06:27:33;43.88;;;18.92;;
70920;SDS011;58572;48.110;19.838;2023-01-08T06:30:00;36.28;;;14.48;;
70920;SDS011;58572;48.110;19.838;2023-01-08T06:32:28;39.83;;;15.50;;
70920;SDS011;58572;48.110;19.838;2023-01-08T06:34:57;38.35;;;16.85;;
70920;SDS011;58572;48.110;19.838;2023-01-08T06:37:24;33.53;;;14.98;;
70920;SDS011;58572;48.110;19.838;2023-01-08T06:39:51;33.88;;;13.35;;
70920;SDS011;58572;48.110;19.838;2023-01-08T06:42:18;35.58;;;13.48;;
70920;SDS011;58572;48.110;19.838;2023-01-08T06:44:46;32.90;;;13.00;;
70920;SDS011;58572;48.110;19.838;2023-01-08T06:47:14;33.08;;;11.50;;
70920;SDS011;58572;48.110;19.838;2023-01-08T06:49:41;35.15;;;13.40;;
70920;SDS011;58572;48.110;19.838;2023-01-08T06:52:09;26.45;;;11.82;;
70920;SDS011;58572;48.110;19.838;2023-01-08T06:54:37;27.55;;;10.98;;
70920;SDS011;58572;48.110;19.838;2023-01-08T06:57:04;39.78;;;14.43;;
70920;SDS011;58572;48.110;19.838;2023-01-08T06:59:31;29.98;;;12.00;;
70920;SDS011;58572;48.110;19.838;2023-01-08T07:01:59;33.50;;;11.88;;
70920;SDS011;58572;48.110;19.838;2023-01-08T07:04:26;32.40;;;12.30;;
70920;SDS011;58572;48.110;19.838;2023-01-08T07:06:53;31.38;;;12.30;;
70920;SDS011;58572;48.110;19.838;2023-01-08T07:09:22;29.73;;;10.40;;
70920;SDS011;58572;48.110;19.838;2023-01-08T07:11:49;29.25;;;12.00;;
70920;SDS011;58572;48.110;19.838;2023-01-08T07:14:17;32.80;;;12.88;;
70920;SDS011;58572;48.110;19.838;2023-01-08T07:16:44;28.27;;;10.70;;
70920;SDS011;58572;48.110;19.838;2023-01-08T07:19:11;32.10;;;11.68;;
70920;SDS011;58572;48.110;19.838;2023-01-08T07:21:38;33.72;;;13.07;;
70920;SDS011;58572;48.110;19.838;2023-01-08T07:24:06;37.15;;;11.80;;
70920;SDS011;58572;48.110;19.838;2023-01-08T07:26:35;29.08;;;11.93;;
70920;SDS011;58572;48.110;19.838;2023-01-08T07:29:03;36.45;;;14.68;;
70920;SDS011;58572;48.110;19.838;2023-01-08T07:31:31;37.38;;;13.00;;
70920;SDS011;58572;48.110;19.838;2023-01-08T07:33:58;34.03;;;14.88;;
70920;SDS011;58572;48.110;19.838;2023-01-08T07:36:25;35.85;;;14.13;;
70920;SDS011;58572;48.110;19.838;2023-01-08T07:38:52;32.65;;;14.63;;
70920;SDS011;58572;48.110;19.838;2023-01-08T07:41:20;36.60;;;14.75;;
70920;SDS011;58572;48.110;19.838;2023-01-08T07:43:49;34.33;;;15.10;;
70920;SDS011;58572;48.110;19.838;2023-01-08T07:46:17;34.47;;;14.02;;
70920;SDS011;58572;48.110;19.838;2023-01-08T07:48:47;34.30;;;14.73;;
70920;SDS011;58572;48.110;19.838;2023-01-08T07:51:14;48.08;;;23.58;;
70920;SDS011;58572;48.110;19.838;2023-01-08T07:53:41;31.00;;;11.88;;
70920;SDS011;58572;48.110;19.838;2023-01-08T07:56:08;32.40;;;13.68;;
70920;SDS011;58572;48.110;19.838;2023-01-08T07:58:36;34.50;;;13.80;;
70920;SDS011;58572;48.110;19.838;2023-01-08T08:01:06;33.17;;;12.38;;
70920;SDS011;58572;48.110;19.838;2023-01-08T08:03:35;32.17;;;14.57;;
70920;SDS011;58572;48.110;19.838;2023-01-08T08:06:03;32.85;;;14.68;;
70920;SDS011;58572;48.110;19.838;2023-01-08T08:08:31;31.85;;;13.18;;
70920;SDS011;58572;48.110;19.838;2023-01-08T08:10:59;31.10;;;14.00;;
70920;SDS011;58572;48.110;19.838;2023-01-08T08:13:26;33.05;;;15.60;;
70920;SDS011;58572;48.110;19.838;2023-01-08T08:15:54;31.27;;;12.30;;
70920;SDS011;58572;48.110;19.838;2023-01-08T08:18:22;31.10;;;12.57;;
70920;SDS011;58572;48.110;19.838;2023-01-08T08:20:50;38.60;;;15.40;;
70920;SDS011;58572;48.110;19.838;2023-01-08T08:23:17;31.08;;;14.75;;
70920;SDS011;58572;48.110;19.838;2023-01-08T08:25:45;30.33;;;13.55;;
70920;SDS011;58572;48.110;19.838;2023-01-08T08:28:12;30.30;;;14.20;;
70920;SDS011;58572;48.110;19.838;2023-01-08T08:30:39;33.20;;;14.85;;
70920;SDS011;58572;48.110;19.838;2023-01-08T08:33:07;38.20;;;15.57;;
70920;SDS011;58572;48.110;19.838;2023-01-08T08:35:36;48.42;;;22.15;;
70920;SDS011;58572;48.110;19.838;2023-01-08T08:38:04;36.38;;;16.60;;
70920;SDS011;58572;48.110;19.838;2023-01-08T08:40:31;41.72;;;19.05;;
70920;SDS011;58572;48.110;19.838;2023-01-08T08:42:59;36.90;;;16.25;;
70920;SDS011;58572;48.110;19.838;2023-01-08T08:45:28;40.40;;;19.15;;
70920;SDS011;58572;48.110;19.838;2023-01-08T08:47:56;38.83;;;19.05;;
70920;SDS011;58572;48.110;19.838;2023-01-08T08:50:23;35.03;;;15.77;;
70920;SDS011;58572;48.110;19.838;2023-01-08T08:52:57;34.45;;;15.70;;
70920;SDS011;58572;48.110;19.838;2023-01-08T08:55:25;48.42;;;23.90;;
70920;SDS011;58572;48.110;19.838;2023-01-08T08:57:52;47.33;;;24.17;;
70920;SDS011;58572;48.110;19.838;2023-01-08T09:00:20;50.58;;;24.52;;
70920;SDS011;58572;48.110;19.838;2023-01-08T09:02:48;44.67;;;20.77;;
70920;SDS011;58572;48.110;19.838;2023-01-08T09:05:16;53.63;;;21.83;;
70920;SDS011;58572;48.110;19.838;2023-01-08T09:07:43;69.45;;;28.10;;
70920;SDS011;58572;48.110;19.838;2023-01-08T09:10:12;119.13;;;59.05;;
70920;SDS011;58572;48.110;19.838;2023-01-08T09:12:40;50.88;;;24.77;;
70920;SDS011;58572;48.110;19.838;2023-01-08T09:15:07;62.00;;;27.13;;
70920;SDS011;58572;48.110;19.838;2023-01-08T09:17:35;47.65;;;20.30;;
70920;SDS011;58572;48.110;19.838;2023-01-08T09:20:03;39.33;;;16.90;;
70920;SDS011;58572;48.110;19.838;2023-01-08T09:22:32;37.25;;;16.27;;
70920;SDS011;58572;48.110;19.838;2023-01-08T09:24:59;40.65;;;20.15;;
70920;SDS011;58572;48.110;19.838;2023-01-08T09:27:28;41.97;;;19.30;;
70920;SDS011;58572;48.110;19.838;2023-01-08T09:29:55;41.05;;;17.27;;
70920;SDS011;58572;48.110;19.838;2023-01-08T09:32:22;36.00;;;18.02;;
70920;SDS011;58572;48.110;19.838;2023-01-08T09:34:49;43.08;;;18.95;;
70920;SDS011;58572;48.110;19.838;2023-01-08T09:37:17;40.10;;;17.27;;
70920;SDS011;58572;48.110;19.838;2023-01-08T09:39:44;42.08;;;19.05;;
70920;SDS011;58572;48.110;19.838;2023-01-08T09:42:12;45.53;;;20.05;;
70920;SDS011;58572;48.110;19.838;2023-01-08T09:44:42;44.10;;;19.80;;
70920;SDS011;58572;48.110;19.838;2023-01-08T09:47:16;41.90;;;19.80;;
70920;SDS011;58572;48.110;19.838;2023-01-08T09:49:49;44.45;;;17.83;;
70920;SDS011;58572;48.110;19.838;2023-01-08T09:52:20;43.58;;;17.92;;
70920;SDS011;58572;48.110;19.838;2023-01-08T09:54:48;51.90;;;25.40;;
70920;SDS011;58572;48.110;19.838;2023-01-08T09:57:16;52.25;;;20.45;;
70920;SDS011;58572;48.110;19.838;2023-01-08T09:59:47;47.03;;;20.73;;
70920;SDS011;58572;48.110;19.838;2023-01-08T10:02:15;45.83;;;18.60;;
70920;SDS011;58572;48.110;19.838;2023-01-08T10:04:44;47.65;;;19.45;;
70920;SDS011;58572;48.110;19.838;2023-01-08T10:07:15;44.42;;;18.85;;
70920;SDS011;58572;48.110;19.838;2023-01-08T10:09:46;44.92;;;19.73;;
70920;SDS011;58572;48.110;19.838;2023-01-08T10:12:23;44.05;;;19.95;;
70920;SDS011;58572;48.110;19.838;2023-01-08T10:14:56;48.22;;;22.83;;
70920;SDS011;58572;48.110;19.838;2023-01-08T10:17:26;47.60;;;24.50;;
70920;SDS011;58572;48.110;19.838;2023-01-08T10:19:56;48.45;;;20.52;;
70920;SDS011;58572;48.110;19.838;2023-01-08T10:22:24;44.83;;;18.17;;
70920;SDS011;58572;48.110;19.838;2023-01-08T10:25:02;51.95;;;23.20;;
70920;SDS011;58572;48.110;19.838;2023-01-08T10:27:35;47.88;;;22.33;;
70920;SDS011;58572;48.110;19.838;2023-01-08T10:30:15;44.53;;;19.65;;
70920;SDS011;58572;48.110;19.838;2023-01-08T10:32:46;45.38;;;20.23;;
70920;SDS011;58572;48.110;19.838;2023-01-08T10:35:18;39.10;;;17.58;;
70920;SDS011;58572;48.110;19.838;2023-01-08T10:37:47;48.42;;;21.70;;
70920;SDS011;58572;48.110;19.838;2023-01-08T10:40:23;44.40;;;20.27;;
70920;SDS011;58572;48.110;19.838;2023-01-08T10:42:55;44.47;;;22.08;;
70920;SDS011;58572;48.110;19.838;2023-01-08T10:45:26;45.13;;;20.00;;
70920;SDS011;58572;48.110;19.838;2023-01-08T10:47:54;44.10;;;20.75;;
70920;SDS011;58572;48.110;19.838;2023-01-08T10:50:26;47.95;;;23.25;;
70920;SDS011;58572;48.110;19.838;2023-01-08T10:52:55;42.60;;;18.83;;
70920;SDS011;58572;48.110;19.838;2023-01-08T10:55:25;57.25;;;27.38;;
70920;SDS011;58572;48.110;19.838;2023-01-08T10:57:56;56.97;;;33.80;;
70920;SDS011;58572;48.110;19.838;2023-01-08T11:00:28;44.22;;;21.63;;
70920;SDS011;58572;48.110;19.838;2023-01-08T11:02:57;46.53;;;24.58;;
70920;SDS011;58572;48.110;19.838;2023-01-08T11:05:31;47.67;;;21.55;;
70920;SDS011;58572;48.110;19.838;2023-01-08T11:08:01;42.83;;;18.73;;
70920;SDS011;58572;48.110;19.838;2023-01-08T11:10:31;39.30;;;19.85;;
70920;SDS011;58572;48.110;19.838;2023-01-08T11:13:01;60.63;;;32.03;;
70920;SDS011;58572;48.110;19.838;2023-01-08T11:15:45;39.58;;;18.63;;
70920;SDS011;58572;48.110;19.838;2023-01-08T11:18:17;38.30;;;20.52;;
70920;SDS011;58572;48.110;19.838;2023-01-08T11:20:46;35.92;;;16.85;;
70920;SDS011;58572;48.110;19.838;2023-01-08T11:23:17;38.05;;;17.88;;
70920;SDS011;58572;48.110;19.838;2023-01-08T11:25:54;36.95;;;18.17;;
70920;SDS011;58572;48.110;19.838;2023-01-08T11:28:30;33.38;;;17.65;;
70920;SDS011;58572;48.110;19.838;2023-01-08T11:31:08;49.95;;;25.55;;
70920;SDS011;58572;48.110;19.838;2023-01-08T11:33:40;38.90;;;18.83;;
70920;SDS011;58572;48.110;19.838;2023-01-08T11:36:10;41.45;;;18.65;;
70920;SDS011;58572;48.110;19.838;2023-01-08T11:38:45;38.70;;;19.92;;
70920;SDS011;58572;48.110;19.838;2023-01-08T11:41:19;42.65;;;18.85;;
70920;SDS011;58572;48.110;19.838;2023-01-08T11:44:10;35.97;;;17.75;;
70920;SDS011;58572;48.110;19.838;2023-01-08T11:46:58;37.95;;;19.10;;
70920;SDS011;58572;48.110;19.838;2023-01-08T11:52:15;37.00;;;17.10;;
70920;SDS011;58572;48.110;19.838;2023-01-08T11:54:58;37.42;;;17.00;;
70920;SDS011;58572;48.110;19.838;2023-01-08T11:57:37;32.15;;;16.75;;
70920;SDS011;58572;48.110;19.838;2023-01-08T12:03:13;35.13;;;16.00;;
70920;SDS011;58572;48.110;19.838;2023-01-08T12:05:48;39.47;;;18.23;;
70920;SDS011;58572;48.110;19.838;2023-01-08T12:08:24;36.42;;;16.48;;
70920;SDS011;58572;48.110;19.838;2023-01-08T12:11:02;32.75;;;18.20;;
70920;SDS011;58572;48.110;19.838;2023-01-08T12:16:35;39.28;;;17.77;;
70920;SDS011;58572;48.110;19.838;2023-01-08T12:19:19;33.90;;;17.75;;
70920;SDS011;58572;48.110;19.838;2023-01-08T12:22:09;32.50;;;16.83;;
70920;SDS011;58572;48.110;19.838;2023-01-08T12:25:02;33.75;;;16.15;;
70920;SDS011;58572;48.110;19.838;2023-01-08T12:27:57;33.50;;;16.83;;
70920;SDS011;58572;48.110;19.838;2023-01-08T12:30:42;50.80;;;27.63;;
70920;SDS011;58572;48.110;19.838;2023-01-08T12:33:21;40.58;;;20.55;;
70920;SDS011;58572;48.110;19.838;2023-01-08T12:36:02;33.20;;;18.17;;
70920;SDS011;58572;48.110;19.838;2023-01-08T12:38:35;36.13;;;18.95;;
70920;SDS011;58572;48.110;19.838;2023-01-08T12:41:08;38.05;;;19.77;;
70920;SDS011;58572;48.110;19.838;2023-01-08T12:43:40;35.47;;;17.85;;
70920;SDS011;58572;48.110;19.838;2023-01-08T12:46:15;35.83;;;18.85;;
70920;SDS011;58572;48.110;19.838;2023-01-08T12:48:44;39.15;;;20.65;;
70920;SDS011;58572;48.110;19.838;2023-01-08T12:51:16;38.42;;;19.52;;
70920;SDS011;58572;48.110;19.838;2023-01-08T12:53:53;36.35;;;17.92;;
70920;SDS011;58572;48.110;19.838;2023-01-08T12:56:26;38.90;;;19.05;;
70920;SDS011;58572;48.110;19.838;2023-01-08T12:59:09;38.00;;;19.15;;
70920;SDS011;58572;48.110;19.838;2023-01-08T13:01:44;37.33;;;18.13;;
70920;SDS011;58572;48.110;19.838;2023-01-08T13:04:15;36.78;;;19.63;;
70920;SDS011;58572;48.110;19.838;2023-01-08T13:06:54;38.80;;;20.92;;
70920;SDS011;58572;48.110;19.838;2023-01-08T13:09:26;35.05;;;18.63;;
70920;SDS011;58572;48.110;19.838;2023-01-08T13:14:22;37.80;;;18.33;;
70920;SDS011;58572;48.110;19.838;2023-01-08T13:16:59;39.50;;;20.30;;
70920;SDS011;58572;48.110;19.838;2023-01-08T13:19:29;42.05;;;19.80;;
70920;SDS011;58572;48.110;19.838;2023-01-08T13:22:04;46.65;;;22.75;;
70920;SDS011;58572;48.110;19.838;2023-01-08T13:24:31;41.45;;;18.55;;
70920;SDS011;58572;48.110;19.838;2023-01-08T13:27:24;40.90;;;19.42;;
70920;SDS011;58572;48.110;19.838;2023-01-08T13:29:54;38.88;;;20.05;;
70920;SDS011;58572;48.110;19.838;2023-01-08T13:32:26;44.15;;;23.50;;
70920;SDS011;58572;48.110;19.838;2023-01-08T13:35:18;36.40;;;18.17;;
70920;SDS011;58572;48.110;19.838;2023-01-08T13:37:52;47.65;;;23.65;;
70920;SDS011;58572;48.110;19.838;2023-01-08T13:40:39;44.88;;;19.85;;
70920;SDS011;58572;48.110;19.838;2023-01-08T13:43:23;44.35;;;19.85;;
70920;SDS011;58572;48.110;19.838;2023-01-08T13:46:03;46.00;;;24.00;;
70920;SDS011;58572;48.110;19.838;2023-01-08T13:48:35;45.53;;;22.52;;
70920;SDS011;58572;48.110;19.838;2023-01-08T13:51:04;45.33;;;21.58;;
70920;SDS011;58572;48.110;19.838;2023-01-08T13:56:01;39.55;;;19.95;;
70920;SDS011;58572;48.110;19.838;2023-01-08T13:58:32;48.38;;;23.23;;
70920;SDS011;58572;48.110;19.838;2023-01-08T14:01:03;46.20;;;21.85;;
70920;SDS011;58572;48.110;19.838;2023-01-08T14:03:33;47.95;;;22.45;;
70920;SDS011;58572;48.110;19.838;2023-01-08T14:06:06;43.53;;;21.65;;
70920;SDS011;58572;48.110;19.838;2023-01-08T14:08:49;41.60;;;21.60;;
70920;SDS011;58572;48.110;19.838;2023-01-08T14:11:17;42.00;;;21.58;;
70920;SDS011;58572;48.110;19.838;2023-01-08T14:13:46;51.60;;;27.38;;
70920;SDS011;58572;48.110;19.838;2023-01-08T14:16:14;48.25;;;24.77;;
70920;SDS011;58572;48.110;19.838;2023-01-08T14:18:42;53.83;;;25.13;;
70920;SDS011;58572;48.110;19.838;2023-01-08T14:21:11;46.10;;;20.27;;
70920;SDS011;58572;48.110;19.838;2023-01-08T14:23:39;85.82;;;37.83;;
70920;SDS011;58572;48.110;19.838;2023-01-08T14:26:15;53.85;;;26.73;;
70920;SDS011;58572;48.110;19.838;2023-01-08T14:28:52;98.88;;;44.88;;
70920;SDS011;58572;48.110;19.838;2023-01-08T14:31:20;56.33;;;28.73;;
70920;SDS011;58572;48.110;19.838;2023-01-08T14:33:49;172.80;;;67.25;;
70920;SDS011;58572;48.110;19.838;2023-01-08T14:36:18;75.22;;;35.90;;
70920;SDS011;58572;48.110;19.838;2023-01-08T14:38:47;49.33;;;25.05;;
70920;SDS011;58572;48.110;19.838;2023-01-08T14:41:20;153.35;;;63.22;;
70920;SDS011;58572;48.110;19.838;2023-01-08T14:44:16;56.10;;;27.23;;
70920;SDS011;58572;48.110;19.838;2023-01-08T14:46:44;51.78;;;26.50;;
70920;SDS011;58572;48.110;19.838;2023-01-08T14:49:15;85.43;;;37.30;;
70920;SDS011;58572;48.110;19.838;2023-01-08T14:51:46;94.43;;;39.05;;